Time;durP1;ratioP1;P1;durP2;ratioP2;P2;SDS_P1;SDS_P2;PMS_P1;PMS_P2;Temp;Humidity;BMP_temperature;BMP_pressure;BME280_temperature;BME280_humidity;BME280_pressure;Samples;Min_cycle;Max_cycle;Signal;HPM_P1;HPM_P2
2022/12/15 00:40:57;;;;;;;110.78;63.72;;;;;;;-3.64;100.00;98368.84;5052517;28;20120;-80
2022/12/15 00:43:23;;;;;;;106.00;63.55;;;;;;;-3.66;100.00;98376.53;5052183;28;20021;-80
2022/12/15 00:48:32;;;;;;;117.90;64.30;;;;;;;-3.64;100.00;98379.03;5052475;28;20039;-80
2022/12/15 00:50:58;;;;;;;111.35;61.58;;;;;;;-3.63;100.00;98376.47;5052224;28;20361;-80
2022/12/15 01:20:54;;;;;;;120.70;64.97;;;;;;;-3.71;100.00;98395.22;5052293;28;20043;-80
2022/12/15 01:23:19;;;;;;;114.32;64.93;;;;;;;-3.73;100.00;98396.94;5051726;28;20024;-80
2022/12/15 01:25:44;;;;;;;124.15;64.57;;;;;;;-3.72;100.00;98396.91;5051997;28;20453;-80
2022/12/15 01:28:10;;;;;;;125.45;68.07;;;;;;;-3.79;100.00;98385.13;5051650;28;20027;-80
2022/12/15 01:30:35;;;;;;;119.18;65.30;;;;;;;-3.81;100.00;98389.38;5051790;28;20113;-80
2022/12/15 01:33:00;;;;;;;117.53;65.07;;;;;;;-3.78;100.00;98400.38;5052055;28;20047;-80
2022/12/15 01:35:26;;;;;;;116.85;64.50;;;;;;;-3.82;100.00;98392.78;5051613;28;20041;-80
2022/12/15 01:37:51;;;;;;;105.35;61.65;;;;;;;-3.83;100.00;98388.56;5050924;28;20063;-80
2022/12/15 01:43:03;;;;;;;115.28;63.10;;;;;;;-3.77;100.00;98408.84;5051584;28;20064;-80
2022/12/15 01:45:28;;;;;;;115.47;65.05;;;;;;;-3.74;100.00;98408.81;5050385;28;20107;-80
2022/12/15 01:48:03;;;;;;;113.82;61.55;;;;;;;-3.80;100.00;98403.78;5051881;28;20033;-80
2022/12/15 01:50:31;;;;;;;112.10;65.82;;;;;;;-3.75;100.00;98417.28;5051735;28;20104;-80
2022/12/15 01:52:57;;;;;;;117.38;63.53;;;;;;;-3.84;100.00;98404.66;5052031;28;20025;-80
2022/12/15 01:55:27;;;;;;;115.60;65.63;;;;;;;-3.83;100.00;98412.31;5051289;28;20423;-80
2022/12/15 01:57:59;;;;;;;121.23;62.60;;;;;;;-3.86;100.00;98407.22;5053959;28;20021;-80
2022/12/15 02:00:25;;;;;;;121.90;66.53;;;;;;;-3.78;100.00;98423.28;5055757;28;20260;-80
2022/12/15 02:02:50;;;;;;;118.05;67.50;;;;;;;-3.83;100.00;98408.91;5055786;28;20499;-80
2022/12/15 02:05:16;;;;;;;120.30;63.50;;;;;;;-3.77;100.00;98424.94;5055764;28;20060;-80
2022/12/15 02:07:42;;;;;;;125.38;65.50;;;;;;;-3.77;100.00;98431.75;5055595;28;20128;-80
2022/12/15 02:10:09;;;;;;;116.68;65.63;;;;;;;-3.81;100.00;98432.63;5055265;28;20508;-80
2022/12/15 02:12:53;;;;;;;113.88;64.10;;;;;;;-3.77;100.00;98445.31;5055362;28;20060;-80
2022/12/15 02:15:31;;;;;;;132.13;68.80;;;;;;;-3.79;100.00;98441.94;5055202;28;20456;-80
2022/12/15 02:18:20;;;;;;;136.32;71.93;;;;;;;-3.85;100.00;98433.50;5055362;28;20083;-80
2022/12/15 02:21:17;;;;;;;121.10;68.40;;;;;;;-3.74;100.00;98441.06;5053860;28;20419;-80
2022/12/15 02:24:25;;;;;;;123.30;68.50;;;;;;;-3.73;100.00;98447.81;5055296;28;20044;-80
2022/12/15 02:27:27;;;;;;;121.03;66.15;;;;;;;-3.73;100.00;98466.47;5055105;28;20027;-80
2022/12/15 02:30:25;;;;;;;124.40;69.78;;;;;;;-3.74;100.00;98472.44;5053974;28;20029;-80
2022/12/15 02:33:02;;;;;;;125.93;69.55;;;;;;;-3.82;100.00;98462.31;5032650;28;20104;-80
2022/12/15 02:35:48;;;;;;;120.43;68.82;;;;;;;-3.73;100.00;98470.72;5031997;28;20433;-80
2022/12/15 02:38:14;;;;;;;124.93;70.03;;;;;;;-3.75;100.00;98475.81;5032376;28;20049;-80
2022/12/15 02:40:39;;;;;;;134.32;73.32;;;;;;;-3.76;100.00;98474.13;5032437;28;20164;-80
2022/12/15 02:43:06;;;;;;;136.75;76.65;;;;;;;-3.80;100.00;98482.63;5032382;28;20044;-80
2022/12/15 02:45:46;;;;;;;146.82;79.88;;;;;;;-3.82;100.00;98480.13;5031808;28;20592;-80
2022/12/15 02:48:30;;;;;;;141.35;78.55;;;;;;;-3.79;100.00;98482.66;5032102;28;20087;-80
2022/12/15 02:51:02;;;;;;;150.60;81.03;;;;;;;-3.77;100.00;98490.25;5032286;28;20124;-80
2022/12/15 02:53:55;;;;;;;149.23;83.32;;;;;;;-3.73;100.00;98494.47;5032377;28;20033;-80
2022/12/15 02:56:50;;;;;;;152.50;86.15;;;;;;;-3.83;100.00;98480.97;5031945;28;20061;-80
2022/12/15 02:59:37;;;;;;;157.27;84.55;;;;;;;-3.80;100.00;98495.34;5032088;28;20060;-80
2022/12/15 03:02:05;;;;;;;156.52;82.82;;;;;;;-3.87;100.00;98493.75;5032128;28;20036;-80
2022/12/15 03:04:32;;;;;;;157.77;84.45;;;;;;;-3.77;100.00;98514.00;5031785;28;20324;-80
2022/12/15 03:07:02;;;;;;;157.23;85.97;;;;;;;-3.79;100.00;98515.72;5031583;28;20067;-80
2022/12/15 03:09:28;;;;;;;149.15;83.63;;;;;;;-3.86;100.00;98503.91;5040168;28;20052;-80
2022/12/15 03:11:54;;;;;;;153.80;83.47;;;;;;;-3.79;100.00;98517.44;5053047;28;20025;-80
2022/12/15 03:14:19;;;;;;;152.57;85.43;;;;;;;-3.79;100.00;98517.44;5053998;28;20100;-80
2022/12/15 03:16:45;;;;;;;156.48;84.60;;;;;;;-3.82;100.00;98520.81;5054041;28;20013;-80
2022/12/15 03:19:10;;;;;;;166.95;83.25;;;;;;;-3.77;100.00;98531.81;5054087;28;20088;-80
2022/12/15 03:21:35;;;;;;;151.23;81.60;;;;;;;-3.80;100.00;98529.28;5054337;28;20027;-80
2022/12/15 03:24:01;;;;;;;151.65;82.25;;;;;;;-3.77;100.00;98531.81;5054222;28;20048;-80
2022/12/15 03:26:26;;;;;;;153.18;80.72;;;;;;;-3.83;100.00;98518.31;5054014;28;20029;-80
2022/12/15 03:28:51;;;;;;;154.98;84.13;;;;;;;-3.81;100.00;98525.03;5053970;28;20021;-80
2022/12/15 03:31:17;;;;;;;152.77;83.78;;;;;;;-3.78;100.00;98532.66;5053824;28;20017;-80
2022/12/15 03:33:42;;;;;;;144.23;78.72;;;;;;;-3.83;100.00;98539.50;5053772;28;20025;-80
2022/12/15 03:36:08;;;;;;;140.07;79.75;;;;;;;-3.76;100.00;98551.28;5053421;28;20544;-80
2022/12/15 03:38:33;;;;;;;149.95;81.70;;;;;;;-3.74;100.00;98558.09;5053669;28;20041;-80
2022/12/15 03:40:58;;;;;;;151.88;81.00;;;;;;;-3.80;100.00;98541.16;5053651;28;20047;-80
2022/12/15 03:43:23;;;;;;;148.43;78.72;;;;;;;-3.79;100.00;98541.16;5053476;28;20025;-80
2022/12/15 03:45:49;;;;;;;136.52;78.78;;;;;;;-3.74;100.00;98550.47;5053680;28;20233;-80
2022/12/15 03:48:14;;;;;;;147.80;78.30;;;;;;;-3.81;100.00;98545.41;5052028;28;20029;-80
2022/12/15 03:50:39;;;;;;;147.27;79.75;;;;;;;-3.74;100.00;98556.41;5053799;28;20434;-80
2022/12/15 03:53:06;;;;;;;142.85;78.50;;;;;;;-3.81;100.00;98547.09;5052469;28;20027;-80
2022/12/15 03:55:32;;;;;;;134.93;74.25;;;;;;;-3.81;100.00;98549.66;5053311;28;20029;-80
2022/12/15 03:57:58;;;;;;;135.63;72.93;;;;;;;-3.80;100.00;98549.63;5052282;28;20108;-80
2022/12/15 04:00:23;;;;;;;139.05;72.22;;;;;;;-3.78;100.00;98547.94;5053239;28;20232;-80
2022/12/15 04:02:49;;;;;;;134.48;72.38;;;;;;;-3.73;100.00;98568.25;5053245;28;20021;-80
2022/12/15 04:05:18;;;;;;;124.35;71.35;;;;;;;-3.74;100.00;98565.72;5053278;28;20487;-80
2022/12/15 04:07:43;;;;;;;133.85;73.68;;;;;;;-3.73;100.00;98575.03;5052164;28;20107;-80
2022/12/15 04:10:09;;;;;;;127.10;73.07;;;;;;;-3.72;100.00;98582.66;5053158;28;20104;-80
2022/12/15 04:12:38;;;;;;;136.93;73.25;;;;;;;-3.86;100.00;98559.00;5053274;28;20068;-80
2022/12/15 04:15:04;;;;;;;128.63;68.50;;;;;;;-3.73;100.00;98582.69;5052987;28;20194;-80
2022/12/15 04:17:30;;;;;;;124.93;70.15;;;;;;;-3.71;100.00;98591.97;5052765;28;20485;-80
2022/12/15 04:20:10;;;;;;;126.18;69.28;;;;;;;-3.70;100.00;98582.66;5052417;28;20021;-80
2022/12/15 04:22:41;;;;;;;130.13;71.40;;;;;;;-3.78;100.00;98580.16;5051598;28;20036;-80
2022/12/15 05:33:39;;;;;;;106.97;59.60;;;;;;;-3.56;100.00;98672.47;5051926;28;20438;-79
2022/12/15 05:36:05;;;;;;;110.90;59.45;;;;;;;-3.63;100.00;98669.13;5051486;28;20052;-79
2022/12/15 05:38:30;;;;;;;109.20;60.28;;;;;;;-3.55;100.00;98677.56;5051756;28;20361;-79
2022/12/15 05:40:59;;;;;;;105.45;59.47;;;;;;;-3.53;100.00;98687.75;5051696;28;20017;-79
2022/12/15 05:43:25;;;;;;;104.72;57.70;;;;;;;-3.52;100.00;98694.53;5051977;28;20107;-79
2022/12/15 05:45:50;;;;;;;99.75;54.72;;;;;;;-3.58;100.00;98680.13;5051934;28;20053;-79
2022/12/15 05:48:15;;;;;;;104.75;58.67;;;;;;;-3.50;100.00;98690.25;5051884;28;20471;-79
2022/12/15 05:50:40;;;;;;;98.45;56.25;;;;;;;-3.51;100.00;98701.28;5051538;28;20025;-80
2022/12/15 05:53:06;;;;;;;106.93;59.08;;;;;;;-3.48;100.00;98700.44;5051690;28;20353;-80
2022/12/15 05:55:31;;;;;;;108.70;61.00;;;;;;;-3.61;100.00;98677.59;5051561;28;20449;-79
2022/12/15 05:57:56;;;;;;;117.13;63.13;;;;;;;-3.53;100.00;98698.78;5052372;28;20032;-79
2022/12/15 06:00:22;;;;;;;117.20;62.65;;;;;;;-3.56;100.00;98695.38;5050254;28;20029;-80
2022/12/15 06:02:48;;;;;;;112.20;60.25;;;;;;;-3.43;100.00;98719.06;5051672;28;20067;-80
2022/12/15 06:05:13;;;;;;;108.05;60.08;;;;;;;-3.42;100.00;98713.97;5051584;28;20024;-80
2022/12/15 06:07:38;;;;;;;106.60;59.17;;;;;;;-3.36;100.00;98729.22;5051262;28;20028;-80
2022/12/15 06:10:04;;;;;;;104.47;57.45;;;;;;;-3.36;100.00;98730.94;5051734;28;20029;-80
2022/12/15 06:12:30;;;;;;;99.97;55.42;;;;;;;-3.34;100.00;98741.94;5050133;28;20021;-79
2022/12/15 06:14:55;;;;;;;103.97;55.97;;;;;;;-3.42;100.00;98733.50;5051519;28;20029;-80
2022/12/15 06:17:20;;;;;;;99.25;55.63;;;;;;;-3.38;100.00;98743.66;5051349;28;20018;-80
2022/12/15 06:19:46;;;;;;;98.88;56.00;;;;;;;-3.34;100.00;98760.59;5051504;28;20032;-79
2022/12/15 06:22:11;;;;;;;94.93;54.50;;;;;;;-3.36;100.00;98752.13;5051353;28;20032;-80
2022/12/15 06:24:37;;;;;;;95.85;53.47;;;;;;;-3.34;100.00;98763.16;5051378;28;20364;-80
2022/12/15 06:27:02;;;;;;;96.32;54.85;;;;;;;-3.31;100.00;98760.59;5051578;28;20453;-80
2022/12/15 06:29:27;;;;;;;94.53;53.03;;;;;;;-3.31;100.00;98772.47;5051246;28;20104;-80
2022/12/15 06:31:53;;;;;;;94.30;52.30;;;;;;;-3.32;100.00;98771.63;5051380;28;20082;-80
2022/12/15 06:34:18;;;;;;;92.57;54.67;;;;;;;-3.28;100.00;98783.50;5051397;28;20055;-80
2022/12/15 06:36:43;;;;;;;90.95;52.13;;;;;;;-3.31;100.00;98778.41;5050921;28;20029;-80
2022/12/15 06:39:12;;;;;;;100.90;54.47;;;;;;;-3.39;100.00;98769.97;5049882;28;20025;-80
2022/12/15 06:41:37;;;;;;;97.80;55.70;;;;;;;-3.29;100.00;98792.00;5051048;28;20027;-80
2022/12/15 06:44:04;;;;;;;92.75;52.83;;;;;;;-3.26;100.00;98814.03;5054663;28;20025;-79
2022/12/15 06:46:31;;;;;;;98.60;53.83;;;;;;;-3.27;100.00;98799.63;5054852;28;20032;-80
2022/12/15 06:48:57;;;;;;;102.07;55.05;;;;;;;-3.22;100.00;98807.25;5054814;28;20104;-80
2022/12/15 06:51:22;;;;;;;95.43;54.30;;;;;;;-3.24;100.00;98804.72;5054308;28;20017;-79
2022/12/15 06:53:48;;;;;;;97.07;54.20;;;;;;;-3.29;100.00;98804.72;5054613;28;20028;-79
2022/12/15 06:56:41;;;;;;;90.07;52.85;;;;;;;-3.18;100.00;98814.00;5054769;28;20132;-80
2022/12/15 06:59:07;;;;;;;97.93;55.55;;;;;;;-3.27;100.00;98810.66;5054869;28;20049;-80
2022/12/15 07:01:32;;;;;;;95.35;53.15;;;;;;;-3.21;100.00;98814.84;5053109;28;20052;-79
2022/12/15 07:04:01;;;;;;;99.07;57.17;;;;;;;-3.18;100.00;98819.94;5054459;28;20338;-80
2022/12/15 07:06:30;;;;;;;98.10;57.10;;;;;;;-3.18;100.00;98825.03;5054384;28;20028;-80
2022/12/15 07:08:56;;;;;;;94.97;55.92;;;;;;;-3.21;100.00;98822.50;5054570;28;20029;-80
2022/12/15 07:11:21;;;;;;;102.72;56.20;;;;;;;-3.17;100.00;98826.72;5054748;28;20104;-80
2022/12/15 07:13:53;;;;;;;103.10;59.25;;;;;;;-3.13;100.00;98846.22;5054166;28;20047;-80
2022/12/15 07:16:20;;;;;;;106.45;58.25;;;;;;;-3.15;100.00;98842.88;5054132;28;20088;-80
2022/12/15 07:18:45;;;;;;;116.65;63.15;;;;;;;-3.14;100.00;98830.97;5053920;28;20063;-80
2022/12/15 07:21:11;;;;;;;118.90;63.90;;;;;;;-3.11;100.00;98838.59;5054293;28;20048;-80
2022/12/15 07:23:36;;;;;;;114.60;60.22;;;;;;;-3.14;100.00;98831.81;5053743;28;20017;-80
2022/12/15 07:26:07;;;;;;;115.55;60.17;;;;;;;-3.11;100.00;98839.44;5053998;28;20346;-80
2022/12/15 07:28:33;;;;;;;113.65;62.25;;;;;;;-3.07;100.00;98843.69;5053814;28;20415;-80
2022/12/15 07:31:07;;;;;;;113.47;64.15;;;;;;;-3.11;100.00;98843.69;5054012;28;20128;-80
2022/12/15 07:33:34;;;;;;;106.60;58.95;;;;;;;-3.05;100.00;98869.97;5053718;28;20037;-80
2022/12/15 07:36:00;;;;;;;103.30;58.10;;;;;;;-3.13;100.00;98851.31;5053598;28;20079;-79
2022/12/15 07:38:27;;;;;;;111.97;58.22;;;;;;;-3.10;100.00;98858.13;5053567;28;20037;-80
2022/12/15 07:40:52;;;;;;;97.75;56.75;;;;;;;-3.04;100.00;98865.72;5053804;28;20017;-80
2022/12/15 07:43:18;;;;;;;97.65;55.65;;;;;;;-3.01;100.00;98866.56;5053726;28;20457;-80
2022/12/15 07:45:43;;;;;;;97.07;54.67;;;;;;;-3.11;100.00;98851.34;5053439;28;20116;-80
2022/12/15 07:48:08;;;;;;;91.38;51.58;;;;;;;-3.06;100.00;98865.75;5053938;28;20025;-80
2022/12/15 07:50:41;;;;;;;89.35;50.80;;;;;;;-3.01;100.00;98876.75;5053299;28;20375;-80
2022/12/15 07:53:06;;;;;;;83.63;49.50;;;;;;;-3.09;100.00;98868.28;5053889;28;20029;-80
2022/12/15 07:55:31;;;;;;;88.47;50.42;;;;;;;-3.04;100.00;98881.84;5053205;28;20452;-80
2022/12/15 07:57:57;;;;;;;96.20;52.88;;;;;;;-3.02;100.00;98881.88;5053508;28;20024;-80
2022/12/15 08:00:22;;;;;;;87.75;50.92;;;;;;;-3.08;100.00;98880.16;5053323;28;20459;-80
2022/12/15 08:02:47;;;;;;;89.32;50.90;;;;;;;-3.00;100.00;98892.88;5053527;28;20024;-80
2022/12/15 08:05:13;;;;;;;83.72;48.20;;;;;;;-2.99;100.00;98897.16;5052154;28;20256;-80
2022/12/15 08:07:38;;;;;;;75.50;46.13;;;;;;;-2.94;100.00;98903.06;5053112;28;20105;-80
2022/12/15 08:10:04;;;;;;;71.13;42.15;;;;;;;-2.93;100.00;98903.91;5053255;28;20052;-80
2022/12/15 08:12:30;;;;;;;66.10;39.85;;;;;;;-3.02;100.00;98900.53;5053036;28;20151;-80
2022/12/15 08:14:55;;;;;;;62.38;37.92;;;;;;;-2.95;100.00;98926.84;5053036;28;20395;-80
2022/12/15 08:17:20;;;;;;;61.03;37.38;;;;;;;-2.98;100.00;98923.47;5053304;28;20025;-80
2022/12/15 08:19:46;;;;;;;55.05;34.22;;;;;;;-2.94;100.00;98932.78;5051697;28;20029;-80
2022/12/15 08:22:11;;;;;;;60.22;35.88;;;;;;;-2.99;100.00;98922.63;5053052;28;20049;-80
2022/12/15 08:24:36;;;;;;;59.47;33.42;;;;;;;-2.94;100.00;98926.00;5052599;28;20044;-80
2022/12/15 08:27:02;;;;;;;60.38;35.90;;;;;;;-2.90;100.00;98925.13;5053214;28;20087;-80
2022/12/15 08:29:27;;;;;;;53.92;33.20;;;;;;;-2.93;100.00;98920.03;5052103;28;20062;-80
2022/12/15 08:31:52;;;;;;;57.70;33.53;;;;;;;-2.85;100.00;98931.03;5042264;28;20025;-80
2022/12/15 08:34:18;;;;;;;49.92;31.45;;;;;;;-2.89;99.95;98921.72;5041742;28;20045;-79
2022/12/15 08:36:43;;;;;;;49.53;31.90;;;;;;;-2.81;99.80;98926.78;5037380;28;20032;-80
2022/12/15 08:39:08;;;;;;;51.83;32.25;;;;;;;-2.80;99.55;98929.31;5043114;28;20473;-80
2022/12/15 08:41:34;;;;;;;55.13;33.65;;;;;;;-2.80;99.17;98921.66;5032590;28;20025;-80
2022/12/15 08:44:00;;;;;;;50.55;31.20;;;;;;;-2.73;99.01;98925.06;5032511;28;20400;-80
2022/12/15 08:46:29;;;;;;;48.05;28.85;;;;;;;-2.67;98.55;98932.66;5032802;28;20018;-80
2022/12/15 08:48:55;;;;;;;45.40;27.08;;;;;;;-2.76;98.28;98910.59;5032740;28;20035;-80
2022/12/15 08:51:22;;;;;;;43.60;26.58;;;;;;;-2.63;97.84;98948.78;5032768;28;20029;-80
2022/12/15 08:53:48;;;;;;;39.25;25.55;;;;;;;-2.61;97.47;98954.75;5032446;28;20328;-79
2022/12/15 08:56:16;;;;;;;45.47;26.77;;;;;;;-2.61;97.51;98952.19;5032395;28;20112;-80
2022/12/15 08:58:42;;;;;;;45.90;26.50;;;;;;;-2.56;97.07;98968.31;5032426;28;20079;-79
2022/12/15 09:01:11;;;;;;;44.65;25.95;;;;;;;-2.55;97.22;98963.19;5032364;28;20391;-79
2022/12/15 09:03:37;;;;;;;42.30;25.35;;;;;;;-2.52;96.52;98962.34;5032234;28;20087;-80
2022/12/15 09:06:05;;;;;;;37.28;24.60;;;;;;;-2.60;96.40;98936.88;5032051;28;20060;-80
2022/12/15 09:08:31;;;;;;;39.38;25.65;;;;;;;-2.42;96.39;98950.38;5032047;28;20525;-79
2022/12/15 09:10:57;;;;;;;42.08;26.35;;;;;;;-2.45;95.76;98945.28;5032069;28;20026;-79
2022/12/15 09:13:23;;;;;;;43.45;26.42;;;;;;;-2.34;95.87;98967.31;5032410;28;20025;-79
2022/12/15 09:15:58;;;;;;;44.25;26.42;;;;;;;-2.35;96.03;98967.34;5032003;28;20842;-79
2022/12/15 09:18:24;;;;;;;47.95;28.17;;;;;;;-2.29;95.58;98975.78;5041747;28;20032;-79
2022/12/15 09:20:49;;;;;;;39.28;26.10;;;;;;;-2.27;94.85;98980.91;5050974;28;20368;-79
2022/12/15 09:23:15;;;;;;;38.60;24.08;;;;;;;-2.19;94.68;98985.94;5051046;28;20032;-79
2022/12/15 09:25:40;;;;;;;40.05;25.35;;;;;;;-2.20;94.35;98967.22;5051107;28;20096;-79
2022/12/15 09:28:05;;;;;;;39.58;24.77;;;;;;;-2.06;94.06;98978.22;5039208;28;20552;-79
2022/12/15 09:30:30;;;;;;;37.35;23.98;;;;;;;-1.99;93.57;98967.94;5033116;28;20496;-79
2022/12/15 09:32:56;;;;;;;38.10;23.85;;;;;;;-1.91;93.64;98956.84;5032047;28;20027;-79
2022/12/15 09:35:21;;;;;;;35.17;22.58;;;;;;;-1.80;93.15;98961.88;5032109;28;20064;-80
2022/12/15 09:37:46;;;;;;;39.40;23.90;;;;;;;-1.71;92.48;98958.38;5031783;28;20021;-80
2022/12/15 09:40:12;;;;;;;36.88;24.15;;;;;;;-1.70;92.25;98944.75;5031710;28;20457;-79
2022/12/15 09:42:38;;;;;;;37.28;23.27;;;;;;;-1.75;91.53;98937.13;5031801;28;20104;-79
2022/12/15 09:45:13;;;;;;;38.00;23.38;;;;;;;-1.65;91.88;98961.72;5032038;28;20072;-79
2022/12/15 09:47:51;;;;;;;56.70;32.97;;;;;;;-1.76;91.55;98954.16;5032059;28;20022;-79
2022/12/15 09:50:23;;;;;;;41.30;28.13;;;;;;;-1.75;91.08;98952.47;5031800;28;20029;-79
2022/12/15 09:52:57;;;;;;;40.83;27.40;;;;;;;-1.65;91.07;98948.94;5031478;28;20025;-79
2022/12/15 09:55:25;;;;;;;40.40;25.23;;;;;;;-1.50;91.32;98970.97;5031894;28;20025;-79
2022/12/15 09:58:02;;;;;;;46.42;30.38;;;;;;;-1.40;90.51;98967.47;5030379;28;20017;-79
2022/12/15 10:00:39;;;;;;;41.20;27.10;;;;;;;-1.52;89.94;98962.47;5030518;28;20037;-79
2022/12/15 10:03:20;;;;;;;58.72;39.42;;;;;;;-1.57;90.30;98966.78;5031640;28;20033;-79
2022/12/15 10:06:16;;;;;;;47.45;30.60;;;;;;;-1.87;89.78;98952.56;5031670;28;20107;-79
2022/12/15 10:08:54;;;;;;;50.90;31.13;;;;;;;-2.12;90.04;98952.72;5031440;28;20511;-79
2022/12/15 10:11:34;;;;;;;54.53;34.00;;;;;;;-2.14;90.00;98974.03;5031606;28;20029;-79
2022/12/15 10:14:44;;;;;;;50.08;29.83;;;;;;;-2.29;90.88;98974.94;5031783;28;20021;-79
2022/12/15 10:17:15;;;;;;;65.07;36.10;;;;;;;-2.40;91.01;98982.66;4990512;28;20048;-79
2022/12/15 10:19:58;;;;;;;49.95;29.67;;;;;;;-2.38;90.91;98980.09;4993647;28;20026;-79
2022/12/15 10:22:32;;;;;;;60.80;33.30;;;;;;;-2.42;90.78;98976.72;4993606;28;20477;-79
2022/12/15 10:25:19;;;;;;;44.83;26.92;;;;;;;-2.54;90.72;98975.06;4993619;28;20037;-79
2022/12/15 10:28:09;;;;;;;43.72;26.33;;;;;;;-2.47;91.61;98972.50;4993276;28;20038;-79
2022/12/15 10:30:40;;;;;;;43.27;27.60;;;;;;;-2.49;91.34;98961.44;4993216;28;20430;-79
2022/12/15 10:33:21;;;;;;;44.95;26.40;;;;;;;-2.46;91.78;98962.28;4977046;28;20120;-79
2022/12/15 10:35:47;;;;;;;43.63;25.25;;;;;;;-2.46;90.66;98971.66;4976548;28;20049;-79
2022/12/15 10:38:33;;;;;;;40.10;24.45;;;;;;;-2.37;90.83;98986.88;4993351;28;20030;-79
2022/12/15 10:41:02;;;;;;;39.00;24.70;;;;;;;-2.31;90.95;98991.97;4993328;28;20040;-79
2022/12/15 10:43:36;;;;;;;39.92;24.52;;;;;;;-2.22;91.17;99001.28;4993287;28;20413;-79
2022/12/15 10:46:19;;;;;;;39.70;26.23;;;;;;;-2.23;90.61;99000.44;4976830;28;20466;-79
2022/12/15 10:48:55;;;;;;;40.85;25.42;;;;;;;-2.28;90.26;98994.50;5029488;28;20400;-79
2022/12/15 10:51:30;;;;;;;47.67;27.13;;;;;;;-2.33;90.31;98984.31;5033670;28;20029;-79
2022/12/15 10:54:08;;;;;;;41.45;26.40;;;;;;;-2.13;90.68;99011.44;5034713;28;20031;-79
2022/12/15 10:56:45;;;;;;;39.65;26.08;;;;;;;-2.06;91.30;99006.28;5034727;28;20029;-79
2022/12/15 10:59:31;;;;;;;37.30;24.35;;;;;;;-2.01;90.77;98999.44;5034701;28;20104;-79
2022/12/15 11:02:26;;;;;;;45.00;30.33;;;;;;;-1.93;90.72;99001.94;5034284;28;20549;-80
2022/12/15 11:05:14;;;;;;;46.17;27.85;;;;;;;-1.91;90.67;99001.94;5034389;28;20043;-79
2022/12/15 11:07:41;;;;;;;42.38;27.02;;;;;;;-1.89;90.03;99005.34;5034295;28;20099;-80
2022/12/15 11:10:26;;;;;;;47.95;30.20;;;;;;;-1.90;90.81;99009.56;5034759;28;20040;-79
2022/12/15 11:13:17;;;;;;;58.72;33.45;;;;;;;-1.92;90.94;99013.84;5034348;28;20021;-80
2022/12/15 11:15:44;;;;;;;53.58;31.27;;;;;;;-1.84;90.40;99029.13;5034497;28;20079;-79
2022/12/15 11:18:41;;;;;;;54.03;29.95;;;;;;;-1.81;90.42;99034.19;5034293;28;20197;-79
2022/12/15 11:21:43;;;;;;;55.13;31.05;;;;;;;-1.88;90.12;99017.22;5034732;28;20356;-79
2022/12/15 11:24:15;;;;;;;47.20;28.55;;;;;;;-1.80;90.80;99033.34;5012093;28;20128;-79
2022/12/15 11:26:55;;;;;;;42.70;25.40;;;;;;;-1.80;90.21;99035.91;5011746;28;20044;-79
2022/12/15 11:29:41;;;;;;;45.08;26.65;;;;;;;-1.80;90.24;99041.84;5011685;28;20061;-79
2022/12/15 11:32:10;;;;;;;42.97;25.90;;;;;;;-1.78;91.19;99037.56;5011884;28;20029;-80
2022/12/15 11:34:40;;;;;;;42.40;25.90;;;;;;;-1.69;91.11;99028.13;5011543;28;20049;-79
2022/12/15 11:37:11;;;;;;;45.33;29.27;;;;;;;-1.62;90.59;99038.31;5011969;28;20285;-80
2022/12/15 11:39:55;;;;;;;;;;;;;;;-1.58;90.59;99037.41;5012453;28;20424;-79
2022/12/15 11:42:51;;;;;;;42.47;26.17;;;;;;;-1.55;90.75;99036.56;5011650;28;19905;-80
2022/12/15 11:45:39;;;;;;;47.47;28.75;;;;;;;-1.60;90.26;99028.06;5011647;28;20052;-79
2022/12/15 11:48:16;;;;;;;46.55;28.50;;;;;;;-1.59;90.41;99029.78;5011658;28;20449;-79
2022/12/15 11:51:09;;;;;;;45.72;28.00;;;;;;;-1.58;90.13;99039.97;5011409;28;20036;-80
2022/12/15 11:54:13;;;;;;;46.00;28.00;;;;;;;-1.52;90.32;99034.84;5011704;28;20033;-80
2022/12/15 11:56:46;;;;;;;48.17;28.23;;;;;;;-1.45;90.12;99034.78;5011198;28;20505;-80
2022/12/15 11:59:36;;;;;;;43.83;26.45;;;;;;;-1.37;89.84;99041.50;5017294;28;20520;-80
2022/12/15 12:02:50;;;;;;;52.77;31.50;;;;;;;-1.36;89.76;99045.75;5033265;28;20017;-80
2022/12/15 12:05:53;;;;;;;52.30;31.30;;;;;;;-1.39;89.55;99052.59;4991766;28;20507;-80
2022/12/15 12:08:28;;;;;;;44.20;27.38;;;;;;;-1.46;89.65;99053.53;4991653;28;20014;-80
2022/12/15 12:11:09;;;;;;;53.42;29.92;;;;;;;-1.52;89.47;99060.38;4991324;28;20521;-80
2022/12/15 12:13:45;;;;;;;45.85;27.65;;;;;;;-1.66;89.40;99048.56;4991486;28;20038;-80
2022/12/15 12:16:16;;;;;;;52.35;30.20;;;;;;;-1.65;89.00;99065.56;4991493;28;20029;-80
2022/12/15 12:18:54;;;;;;;51.30;29.48;;;;;;;-1.80;88.88;99056.31;4991413;28;20135;-80
2022/12/15 12:21:25;;;;;;;53.60;30.45;;;;;;;-1.79;89.58;99063.09;4991417;28;20041;-80
2022/12/15 12:23:57;;;;;;;64.35;36.35;;;;;;;-1.79;89.46;99069.06;4991140;28;20030;-80
2022/12/15 12:26:37;;;;;;;49.65;28.20;;;;;;;-1.82;88.82;99056.31;4991285;28;20072;-79
2022/12/15 12:29:29;;;;;;;51.60;30.88;;;;;;;-1.92;88.70;99053.84;4990898;28;20117;-80
2022/12/15 12:32:14;;;;;;;44.20;26.08;;;;;;;-2.00;88.11;99056.41;4991010;28;20117;-80
2022/12/15 12:34:49;;;;;;;93.15;62.75;;;;;;;-2.16;87.97;99031.84;4990891;28;20518;-80
2022/12/15 12:37:41;;;;;;;57.45;41.97;;;;;;;-2.19;87.63;99058.25;4991052;28;20136;-80
2022/12/15 12:40:15;;;;;;;54.30;36.38;;;;;;;-2.26;87.90;99065.06;5022905;28;20052;-80
2022/12/15 12:42:47;;;;;;;55.38;40.25;;;;;;;-2.35;88.40;99054.06;5031531;28;20375;-80
2022/12/15 12:45:13;;;;;;;44.92;30.92;;;;;;;-2.49;88.78;99031.13;5032701;28;20036;-80
2022/12/15 12:47:43;;;;;;;38.75;26.60;;;;;;;-2.48;88.74;99040.50;5032925;28;20461;-79
2022/12/15 12:50:19;;;;;;;42.63;26.52;;;;;;;-2.57;88.96;99032.88;5032744;28;20032;-80
2022/12/15 12:52:51;;;;;;;45.42;27.52;;;;;;;-2.54;89.19;99049.00;5032670;28;20048;-80
2022/12/15 12:55:25;;;;;;;53.30;29.52;;;;;;;-2.57;89.24;99051.59;5031177;28;20025;-80
2022/12/15 12:57:52;;;;;;;58.08;31.60;;;;;;;-2.63;89.11;99055.84;5030964;28;20017;-80
2022/12/15 13:00:23;;;;;;;65.70;37.03;;;;;;;-2.67;89.48;99052.47;5033170;28;20021;-80
2022/12/15 13:02:51;;;;;;;66.80;37.85;;;;;;;-2.71;89.85;99055.03;5032578;28;20479;-80
2022/12/15 13:05:29;;;;;;;108.85;53.15;;;;;;;-2.78;89.71;99062.69;5032656;28;20429;-80
2022/12/15 13:08:07;;;;;;;113.18;56.22;;;;;;;-2.93;89.64;99039.78;5032293;28;20075;-80
2022/12/15 13:10:39;;;;;;;108.88;58.97;;;;;;;-2.88;89.88;99052.50;5032281;28;20028;-80
2022/12/15 13:13:07;;;;;;;92.70;52.72;;;;;;;-2.89;90.37;99059.31;5032233;28;20063;-80
2022/12/15 13:15:45;;;;;;;107.57;60.30;;;;;;;-2.95;90.14;99049.16;5032240;28;20033;-80
2022/12/15 13:18:18;;;;;;;81.00;47.53;;;;;;;-2.94;90.61;99062.72;5030985;28;20112;-80
2022/12/15 13:20:46;;;;;;;97.90;51.85;;;;;;;-3.01;90.41;99050.00;5031857;28;20057;-80
2022/12/15 13:23:20;;;;;;;111.88;59.20;;;;;;;-3.05;90.46;99058.47;5030771;28;20414;-80
2022/12/15 13:25:52;;;;;;;103.80;57.85;;;;;;;-3.08;89.93;99063.56;5032088;28;20041;-80
2022/12/15 13:28:39;;;;;;;127.05;60.00;;;;;;;-3.10;90.12;99056.81;5032155;28;20108;-80
2022/12/15 13:31:17;;;;;;;115.55;56.53;;;;;;;-3.15;89.81;99058.50;5031875;28;20384;-80
2022/12/15 13:33:48;;;;;;;105.88;51.28;;;;;;;-3.16;90.25;99056.78;5031920;28;20108;-80
2022/12/15 13:36:40;;;;;;;101.20;53.47;;;;;;;-3.18;90.59;99063.59;5032044;28;20053;-80
2022/12/15 13:39:11;;;;;;;83.57;50.28;;;;;;;-3.20;90.35;99061.06;4989970;28;20092;-80
2022/12/15 13:41:40;;;;;;;80.43;47.63;;;;;;;-3.31;90.19;99050.88;4990048;28;20117;-80
2022/12/15 13:44:30;;;;;;;65.00;40.72;;;;;;;-3.24;90.60;99059.38;4989786;28;20065;-80
2022/12/15 13:47:14;;;;;;;60.63;37.40;;;;;;;-3.32;90.44;99041.53;4989934;28;20034;-80
2022/12/15 13:49:48;;;;;;;65.93;40.03;;;;;;;-3.31;91.01;99047.47;4990022;28;20117;-80
2022/12/15 13:52:26;;;;;;;62.30;38.85;;;;;;;-3.26;90.72;99058.50;4992712;28;20038;-80